createdAt,value
2018-06-18T00:00:39.862Z,87.60
2018-06-18T00:01:43.960Z,87.50
2018-06-18T00:02:48.048Z,87.50
2018-06-18T00:03:52.182Z,87.40
2018-06-18T00:04:56.265Z,87.50
2018-06-18T00:06:00.397Z,87.50
2018-06-18T00:07:04.528Z,87.50
2018-06-18T00:08:08.640Z,87.50
2018-06-18T00:09:14.163Z,87.70
2018-06-18T00:10:18.278Z,87.80
2018-06-18T00:11:22.398Z,87.80
2018-06-18T00:12:26.549Z,87.90
2018-06-18T00:13:30.647Z,87.80
2018-06-18T00:14:34.921Z,87.80
2018-06-18T00:15:39.006Z,87.80
2018-06-18T00:16:43.166Z,87.80
2018-06-18T00:17:47.203Z,87.80
2018-06-18T00:18:51.307Z,87.80
2018-06-18T00:19:55.577Z,87.80
2018-06-18T00:20:59.678Z,87.70
2018-06-18T00:22:03.852Z,87.80
2018-06-18T00:23:07.922Z,87.80
2018-06-18T00:25:15.772Z,87.80
2018-06-18T00:26:19.962Z,87.80
2018-06-18T00:27:24.084Z,87.90
2018-06-18T00:28:28.206Z,88.00
2018-06-18T00:31:39.786Z,88.10
2018-06-18T00:32:43.883Z,88.10
2018-06-18T00:33:48.026Z,88.10
2018-06-18T00:34:52.134Z,88.10
2018-06-18T00:35:56.571Z,88.20
2018-06-18T00:37:00.706Z,88.20
2018-06-18T00:38:05.062Z,88.40
2018-06-18T00:39:09.481Z,88.50
2018-06-18T00:40:13.538Z,88.50
2018-06-18T00:41:17.640Z,88.70
2018-06-18T00:42:21.805Z,88.50
2018-06-18T00:43:25.930Z,88.40
2018-06-18T00:44:30.184Z,88.40
2018-06-18T00:45:34.256Z,88.40
2018-06-18T00:46:38.370Z,88.40
2018-06-18T00:47:42.445Z,88.40
2018-06-18T00:48:46.542Z,88.40
2018-06-18T00:49:50.645Z,88.40
2018-06-18T00:50:54.866Z,88.50
2018-06-18T00:51:58.969Z,88.40
2018-06-18T00:53:03.128Z,88.50
2018-06-18T00:54:07.220Z,88.50
2018-06-18T00:55:18.057Z,88.50
2018-06-18T00:56:22.151Z,88.50
2018-06-18T00:57:26.173Z,88.50
2018-06-18T00:58:30.327Z,88.50
2018-06-18T00:59:34.451Z,88.30
2018-06-18T01:00:38.581Z,88.20
2018-06-18T01:01:42.701Z,88.20
2018-06-18T01:02:46.776Z,88.30
2018-06-18T01:03:51.101Z,88.20
2018-06-18T01:04:55.285Z,88.20
2018-06-18T01:05:59.458Z,88.40
2018-06-18T01:07:03.567Z,88.30
2018-06-18T01:08:07.610Z,88.30
2018-06-18T01:09:12.756Z,88.10
2018-06-18T01:10:17.020Z,88.30
2018-06-18T01:11:21.106Z,88.20
2018-06-18T01:12:25.211Z,88.10
2018-06-18T01:13:29.408Z,88.20
2018-06-18T01:14:33.549Z,88.20
2018-06-18T01:15:37.837Z,88.20
2018-06-18T01:16:41.962Z,88.20
2018-06-18T01:17:46.057Z,88.10
2018-06-18T01:19:53.895Z,88.20
2018-06-18T01:20:58.034Z,88.20
2018-06-18T01:22:02.197Z,88.20
2018-06-18T01:24:16.793Z,88.10
2018-06-18T01:25:20.902Z,88.10
2018-06-18T01:26:25.207Z,88.20
2018-06-18T01:27:29.383Z,88.20
2018-06-18T01:28:33.484Z,88.30
2018-06-18T01:29:37.581Z,88.30
2018-06-18T01:30:47.763Z,89.20
2018-06-18T01:31:57.991Z,88.50
2018-06-18T01:33:02.194Z,88.40
2018-06-18T01:34:11.186Z,88.50
2018-06-18T01:35:15.316Z,88.50
2018-06-18T01:36:19.365Z,88.50
2018-06-18T01:37:23.507Z,88.40
2018-06-18T01:38:27.770Z,89.10
2018-06-18T01:40:35.583Z,88.20
2018-06-18T01:41:39.729Z,88.20
2018-06-18T01:42:43.927Z,89.00
2018-06-18T01:43:48.052Z,88.10
2018-06-18T01:44:52.098Z,88.10
2018-06-18T01:45:56.165Z,88.00
2018-06-18T01:47:00.245Z,88.10
2018-06-18T01:48:04.352Z,88.10
2018-06-18T01:49:08.427Z,88.10
2018-06-18T01:50:12.587Z,88.10
2018-06-18T01:51:16.642Z,88.10
2018-06-18T01:52:20.747Z,88.10
2018-06-18T01:53:25.001Z,88.10
2018-06-18T01:54:29.158Z,88.20
2018-06-18T01:55:33.392Z,88.10
2018-06-18T01:56:37.523Z,88.20
2018-06-18T01:57:41.606Z,88.00
2018-06-18T01:58:45.757Z,88.00
2018-06-18T01:59:49.934Z,88.50
2018-06-18T02:01:57.941Z,87.90
2018-06-18T02:03:02.095Z,87.70
2018-06-18T02:04:06.283Z,87.80
2018-06-18T02:05:10.412Z,87.80
2018-06-18T02:06:14.550Z,87.80
2018-06-18T02:07:18.676Z,87.80
2018-06-18T02:08:22.813Z,87.80
2018-06-18T02:09:26.925Z,87.80
2018-06-18T02:10:31.061Z,87.80
2018-06-18T02:11:35.201Z,88.70
2018-06-18T02:12:39.324Z,87.90
2018-06-18T02:13:43.560Z,87.90
2018-06-18T02:14:47.669Z,87.80
2018-06-18T02:15:51.835Z,87.90
2018-06-18T02:16:55.909Z,88.60
2018-06-18T02:18:00.019Z,87.90
2018-06-18T02:19:04.129Z,88.00
2018-06-18T02:20:08.280Z,87.80
2018-06-18T02:22:16.293Z,87.90
2018-06-18T02:23:20.394Z,87.80
2018-06-18T02:24:24.473Z,87.80
2018-06-18T02:25:28.636Z,87.80
2018-06-18T02:26:32.771Z,87.80
2018-06-18T02:27:42.302Z,87.70
2018-06-18T02:28:51.864Z,87.70
2018-06-18T02:30:01.349Z,87.60
2018-06-18T02:31:10.712Z,87.60
2018-06-18T02:32:20.076Z,87.50
2018-06-18T02:33:29.454Z,88.10
2018-06-18T02:34:38.975Z,87.60
2018-06-18T02:35:48.382Z,87.50
2018-06-18T02:36:57.949Z,87.40
2018-06-18T02:38:07.524Z,87.50
2018-06-18T02:39:12.460Z,87.40
2018-06-18T02:40:21.987Z,87.30
2018-06-18T02:41:26.120Z,87.30
2018-06-18T02:42:30.292Z,87.40
2018-06-18T02:43:34.424Z,87.40
2018-06-18T02:44:38.534Z,87.40
2018-06-18T02:45:42.632Z,87.40
2018-06-18T02:46:46.753Z,87.50
2018-06-18T02:47:50.837Z,87.50
2018-06-18T02:48:55.039Z,87.50
2018-06-18T02:49:59.161Z,87.60
2018-06-18T02:51:03.397Z,87.40
2018-06-18T02:52:07.534Z,87.40
2018-06-18T02:53:11.685Z,87.40
2018-06-18T02:54:15.860Z,87.40
2018-06-18T02:55:20.025Z,87.40
2018-06-18T02:56:36.852Z,87.40
2018-06-18T02:57:41.014Z,87.40
2018-06-18T02:58:45.175Z,87.30
2018-06-18T02:59:49.284Z,87.20
2018-06-18T03:00:53.504Z,87.30
2018-06-18T03:01:57.609Z,87.30
2018-06-18T03:03:01.701Z,87.30
2018-06-18T03:04:06.148Z,87.10
2018-06-18T03:05:10.248Z,87.00
2018-06-18T03:06:14.454Z,87.00
2018-06-18T03:07:18.633Z,87.00
2018-06-18T03:08:22.758Z,86.90
2018-06-18T03:09:26.904Z,86.90
2018-06-18T03:10:31.050Z,86.80
2018-06-18T03:11:35.269Z,86.90
2018-06-18T03:12:39.396Z,86.80
2018-06-18T03:13:43.483Z,86.80
2018-06-18T03:14:47.586Z,86.80
2018-06-18T03:15:51.748Z,86.50
2018-06-18T03:16:55.905Z,86.60
2018-06-18T03:17:59.963Z,86.40
2018-06-18T03:19:09.436Z,87.40
2018-06-18T03:20:18.948Z,86.50
2018-06-18T03:21:28.394Z,86.50
2018-06-18T03:22:37.916Z,86.70
2018-06-18T03:23:47.444Z,86.80
2018-06-18T03:24:56.997Z,87.00
2018-06-18T03:26:06.625Z,87.00
2018-06-18T03:27:16.064Z,87.00
2018-06-18T03:28:25.445Z,87.10
2018-06-18T03:29:32.440Z,87.10
2018-06-18T03:30:36.520Z,87.00
2018-06-18T03:31:40.851Z,87.00
2018-06-18T03:32:45.067Z,87.00
2018-06-18T03:33:49.123Z,86.90
2018-06-18T03:34:53.298Z,87.00
2018-06-18T03:35:57.389Z,86.80
2018-06-18T03:37:01.942Z,87.00
2018-06-18T03:38:06.109Z,86.80
2018-06-18T03:39:12.531Z,86.80
2018-06-18T03:40:16.709Z,86.80
2018-06-18T03:41:20.775Z,86.70
2018-06-18T03:42:24.905Z,86.80
2018-06-18T03:43:28.966Z,86.80
2018-06-18T03:44:47.538Z,86.80
2018-06-18T03:45:51.686Z,86.80
2018-06-18T03:46:57.048Z,86.80
2018-06-18T03:48:07.278Z,86.80
2018-06-18T03:49:11.366Z,87.40
2018-06-18T03:50:15.511Z,86.80
2018-06-18T03:51:19.661Z,86.80
2018-06-18T03:52:23.758Z,86.60
2018-06-18T03:53:27.862Z,86.60
2018-06-18T03:54:32.033Z,86.50
2018-06-18T03:55:44.050Z,86.50
2018-06-18T03:56:48.309Z,86.50
2018-06-18T03:57:52.459Z,86.60
2018-06-18T03:58:56.553Z,86.80
2018-06-18T04:00:00.721Z,86.80
2018-06-18T04:01:26.375Z,86.80
2018-06-18T04:02:40.093Z,87.00
2018-06-18T04:03:50.187Z,86.80
2018-06-18T04:06:01.570Z,86.50
2018-06-18T04:07:10.948Z,86.50
2018-06-18T04:08:15.157Z,86.10
2018-06-18T04:09:24.558Z,86.00
2018-06-18T04:10:35.740Z,86.00
2018-06-18T04:11:45.355Z,85.90
2018-06-18T04:12:49.440Z,85.90
2018-06-18T04:13:53.551Z,85.80
2018-06-18T04:14:57.967Z,85.90
2018-06-18T04:16:02.133Z,85.70
2018-06-18T04:17:06.448Z,85.50
2018-06-18T04:18:10.584Z,85.50
2018-06-18T04:19:14.759Z,84.80
2018-06-18T04:20:18.894Z,85.40
2018-06-18T04:21:23.063Z,85.40
2018-06-18T04:22:27.312Z,86.30
2018-06-18T04:23:31.460Z,85.40
2018-06-18T04:24:35.580Z,85.50
2018-06-18T04:25:39.765Z,85.40
2018-06-18T04:26:43.880Z,85.30
2018-06-18T04:27:48.068Z,85.30
2018-06-18T04:28:52.158Z,85.10
2018-06-18T04:29:56.309Z,85.00
2018-06-18T04:31:00.499Z,85.00
2018-06-18T04:32:04.600Z,84.90
2018-06-18T04:33:09.167Z,84.90
2018-06-18T04:34:24.113Z,85.70
2018-06-18T04:35:28.294Z,84.90
2018-06-18T04:36:32.395Z,84.80
2018-06-18T04:37:36.758Z,84.80
2018-06-18T04:38:40.921Z,85.60
2018-06-18T04:39:45.092Z,84.60
2018-06-18T04:40:49.178Z,84.50
2018-06-18T04:41:58.735Z,84.30
2018-06-18T04:43:08.156Z,84.10
2018-06-18T04:44:17.711Z,84.70
2018-06-18T04:45:27.221Z,84.50
2018-06-18T04:46:36.790Z,83.80
2018-06-18T04:47:46.302Z,84.60
2018-06-18T04:48:55.925Z,83.60
2018-06-18T04:50:05.415Z,83.80
2018-06-18T04:51:09.594Z,83.50
2018-06-18T04:52:13.687Z,83.40
2018-06-18T04:53:17.808Z,83.60
2018-06-18T04:54:21.917Z,84.40
2018-06-18T04:55:25.977Z,83.80
2018-06-18T04:56:30.150Z,83.80
2018-06-18T04:57:34.254Z,83.90
2018-06-18T04:58:38.359Z,83.80
2018-06-18T04:59:46.806Z,83.80
2018-06-18T05:01:12.466Z,83.90
2018-06-18T05:02:16.491Z,83.90
2018-06-18T05:03:20.554Z,83.80
2018-06-18T05:04:24.705Z,83.30
2018-06-18T05:05:28.843Z,84.40
2018-06-18T05:06:33.064Z,83.80
2018-06-18T05:07:37.186Z,83.90
2018-06-18T05:10:26.408Z,84.20
2018-06-18T05:11:30.659Z,84.50
2018-06-18T05:12:34.853Z,84.30
2018-06-18T05:13:38.947Z,84.20
2018-06-18T05:14:43.062Z,84.20
2018-06-18T05:15:47.197Z,84.10
2018-06-18T05:16:51.303Z,84.10
2018-06-18T05:17:55.431Z,84.00
2018-06-18T05:18:59.513Z,84.50
2018-06-18T05:20:03.734Z,83.80
2018-06-18T05:22:11.635Z,83.60
2018-06-18T05:23:18.702Z,83.10
2018-06-18T05:24:22.841Z,83.20
2018-06-18T05:25:27.132Z,83.50
2018-06-18T05:26:31.966Z,83.80
2018-06-18T05:27:36.060Z,83.60
2018-06-18T05:28:40.204Z,83.40
2018-06-18T05:29:44.327Z,83.40
2018-06-18T05:30:48.482Z,84.10
2018-06-18T05:31:52.902Z,83.90
2018-06-18T05:32:57.142Z,83.20
2018-06-18T05:34:01.347Z,82.90
2018-06-18T05:35:06.492Z,82.90
2018-06-18T05:36:10.568Z,83.00
2018-06-18T05:37:17.821Z,83.00
2018-06-18T05:38:27.252Z,82.50
2018-06-18T05:39:31.387Z,82.40
2018-06-18T05:40:35.522Z,82.90
2018-06-18T05:41:39.642Z,81.90
2018-06-18T05:42:43.765Z,81.70
2018-06-18T05:43:47.873Z,81.60
2018-06-18T05:44:52.016Z,81.30
2018-06-18T05:46:59.780Z,81.80
2018-06-18T05:48:03.904Z,80.60
2018-06-18T05:49:08.047Z,80.40
2018-06-18T05:50:12.246Z,80.40
2018-06-18T05:51:18.801Z,81.10
2018-06-18T05:52:22.850Z,80.30
2018-06-18T05:53:27.084Z,80.10
2018-06-18T05:54:31.123Z,80.00
2018-06-18T05:55:35.299Z,80.00
2018-06-18T05:56:39.498Z,80.80
2018-06-18T05:57:43.670Z,80.70
2018-06-18T05:58:47.824Z,80.10
2018-06-18T05:59:52.034Z,80.30
2018-06-18T06:00:56.200Z,80.10
2018-06-18T06:02:00.263Z,80.30
2018-06-18T06:03:04.485Z,79.70
2018-06-18T06:04:08.540Z,79.40
2018-06-18T06:05:12.748Z,78.80
2018-06-18T06:06:16.919Z,78.50
2018-06-18T06:07:21.064Z,78.50
2018-06-18T06:08:25.218Z,78.20
2018-06-18T06:09:29.409Z,78.30
2018-06-18T06:10:33.804Z,78.30
2018-06-18T06:11:38.170Z,78.20
2018-06-18T06:12:42.435Z,78.00
2018-06-18T06:13:46.627Z,77.90
2018-06-18T06:14:50.792Z,77.50
2018-06-18T06:15:54.989Z,77.60
2018-06-18T06:16:59.244Z,77.50
2018-06-18T06:18:03.428Z,77.30
2018-06-18T06:19:07.478Z,77.40
2018-06-18T06:20:11.562Z,77.00
2018-06-18T06:21:16.216Z,77.10
2018-06-18T06:22:20.409Z,77.30
2018-06-18T06:23:24.534Z,77.40
2018-06-18T06:24:28.781Z,77.50
2018-06-18T06:25:33.022Z,77.30
2018-06-18T06:26:37.154Z,77.30
2018-06-18T06:27:41.234Z,77.20
2018-06-18T06:28:45.413Z,77.40
2018-06-18T06:29:49.502Z,77.30
2018-06-18T06:30:53.822Z,77.20
2018-06-18T06:31:57.940Z,77.10
2018-06-18T06:33:01.987Z,77.10
2018-06-18T06:34:06.123Z,77.20
2018-06-18T06:35:16.443Z,77.00
2018-06-18T06:36:23.211Z,77.10
2018-06-18T06:37:27.624Z,76.90
2018-06-18T06:38:31.706Z,76.60
2018-06-18T06:39:35.819Z,76.50
2018-06-18T06:40:40.344Z,75.90
2018-06-18T06:42:50.319Z,75.60
2018-06-18T06:43:55.009Z,75.60
2018-06-18T06:44:59.252Z,75.40
2018-06-18T06:46:03.373Z,74.40
2018-06-18T06:47:07.454Z,74.70
2018-06-18T06:48:11.582Z,74.80
2018-06-18T06:49:21.591Z,74.60
2018-06-18T06:50:25.708Z,74.70
2018-06-18T06:51:29.888Z,74.30
2018-06-18T06:52:33.986Z,75.00
2018-06-18T06:53:38.113Z,74.40
2018-06-18T06:54:42.201Z,75.30
2018-06-18T06:57:53.697Z,75.00
2018-06-18T06:58:57.883Z,74.80
2018-06-18T07:00:02.851Z,74.70
2018-06-18T07:01:06.994Z,74.70
2018-06-18T07:02:11.179Z,74.70
2018-06-18T07:03:15.280Z,74.70
2018-06-18T07:04:19.463Z,74.60
2018-06-18T07:05:23.610Z,75.50
2018-06-18T07:06:27.692Z,75.40
2018-06-18T07:07:31.921Z,74.40
2018-06-18T07:08:36.061Z,74.30
2018-06-18T07:09:40.115Z,74.10
2018-06-18T07:10:44.433Z,74.00
2018-06-18T07:11:48.635Z,73.90
2018-06-18T07:12:52.761Z,73.60
2018-06-18T07:13:56.926Z,73.70
2018-06-18T07:15:01.055Z,73.60
2018-06-18T07:16:05.320Z,73.50
2018-06-18T07:17:09.395Z,73.10
2018-06-18T07:18:13.530Z,73.00
2018-06-18T07:19:17.624Z,72.50
2018-06-18T07:20:21.871Z,72.70
2018-06-18T07:21:25.911Z,72.50
2018-06-18T07:23:33.742Z,72.30
2018-06-18T07:24:37.859Z,72.30
2018-06-18T07:25:42.044Z,72.20
2018-06-18T07:26:46.145Z,71.80
2018-06-18T07:27:50.287Z,72.10
2018-06-18T07:28:54.402Z,72.10
2018-06-18T07:31:02.182Z,72.20
2018-06-18T07:32:06.339Z,72.00
2018-06-18T07:33:10.425Z,71.80
2018-06-18T07:34:14.480Z,71.30
2018-06-18T07:35:18.594Z,71.20
2018-06-18T07:36:22.704Z,70.90
2018-06-18T07:37:26.764Z,70.70
2018-06-18T07:38:30.933Z,70.80
2018-06-18T07:39:34.957Z,70.80
2018-06-18T07:40:39.360Z,70.70
2018-06-18T07:41:43.451Z,70.80
2018-06-18T07:42:47.594Z,70.80
2018-06-18T07:43:51.797Z,70.90
2018-06-18T07:44:55.973Z,70.80
2018-06-18T07:46:00.244Z,70.80
2018-06-18T07:47:04.351Z,71.00
2018-06-18T07:48:08.529Z,70.80
2018-06-18T07:49:12.621Z,70.80
2018-06-18T07:50:16.864Z,70.90
2018-06-18T07:51:21.032Z,70.90
2018-06-18T07:52:25.093Z,70.90
2018-06-18T07:53:29.182Z,70.90
2018-06-18T07:54:33.311Z,70.90
2018-06-18T07:55:37.402Z,70.90
2018-06-18T07:56:41.542Z,70.90
2018-06-18T07:57:45.604Z,70.90
2018-06-18T07:59:53.443Z,70.70
2018-06-18T08:00:57.606Z,70.70
2018-06-18T08:02:01.694Z,70.50
2018-06-18T08:03:06.178Z,70.50
2018-06-18T08:04:10.318Z,70.70
2018-06-18T08:05:14.459Z,69.60
2018-06-18T08:06:18.500Z,70.00
2018-06-18T08:07:22.571Z,69.90
2018-06-18T08:08:26.714Z,69.60
2018-06-18T08:09:30.842Z,69.20
2018-06-18T08:10:34.970Z,68.80
2018-06-18T08:11:39.086Z,68.90
2018-06-18T08:12:43.255Z,68.80
2018-06-18T08:13:47.347Z,68.50
2018-06-18T08:14:51.440Z,68.40
2018-06-18T08:15:55.601Z,68.30
2018-06-18T08:16:59.746Z,68.20
2018-06-18T08:18:03.879Z,68.20
2018-06-18T08:20:15.068Z,68.20
2018-06-18T08:21:19.205Z,68.00
2018-06-18T08:22:24.074Z,68.00
2018-06-18T08:24:31.977Z,68.70
2018-06-18T08:25:36.073Z,67.50
2018-06-18T08:26:40.215Z,67.50
2018-06-18T08:27:44.298Z,67.10
2018-06-18T08:28:48.430Z,66.90
2018-06-18T08:29:52.512Z,66.90
2018-06-18T08:32:01.274Z,67.00
2018-06-18T08:33:05.738Z,66.80
2018-06-18T08:34:09.809Z,67.00
2018-06-18T08:35:13.977Z,66.40
2018-06-18T08:36:18.076Z,66.30
2018-06-18T08:38:32.384Z,66.00
2018-06-18T08:39:36.589Z,65.80
2018-06-18T08:40:40.737Z,65.80
2018-06-18T08:41:44.850Z,65.40
2018-06-18T08:42:49.046Z,65.50
2018-06-18T08:43:53.484Z,65.00
2018-06-18T08:44:57.629Z,64.90
2018-06-18T08:46:01.831Z,64.70
2018-06-18T08:47:06.116Z,65.00
2018-06-18T08:48:10.420Z,64.50
2018-06-18T08:49:14.643Z,64.40
2018-06-18T08:50:24.097Z,64.30
2018-06-18T08:51:33.640Z,64.30
2018-06-18T08:52:43.279Z,63.90
2018-06-18T08:53:52.865Z,63.40
2018-06-18T08:55:02.407Z,63.50
2018-06-18T08:56:11.933Z,63.50
2018-06-18T08:57:21.401Z,63.40
2018-06-18T08:58:30.897Z,63.60
2018-06-18T08:59:40.427Z,63.90
2018-06-18T09:00:49.981Z,64.20
2018-06-18T09:01:54.920Z,64.20
2018-06-18T09:03:04.542Z,64.10
2018-06-18T09:04:14.053Z,64.10
2018-06-18T09:06:26.280Z,63.90
2018-06-18T09:07:31.622Z,63.90
2018-06-18T09:08:39.920Z,63.70
2018-06-18T09:09:44.973Z,63.60
2018-06-18T09:10:49.289Z,63.10
2018-06-18T09:11:53.416Z,63.40
2018-06-18T09:12:57.598Z,62.90
2018-06-18T09:14:01.745Z,62.10
2018-06-18T09:15:06.338Z,61.50
2018-06-18T09:16:10.525Z,61.60
2018-06-18T09:17:14.659Z,61.80
2018-06-18T09:18:18.796Z,61.80
2018-06-18T09:19:22.937Z,61.50
2018-06-18T09:20:27.063Z,61.40
2018-06-18T09:21:31.239Z,61.10
2018-06-18T09:23:39.161Z,61.70
2018-06-18T09:24:43.277Z,61.90
2018-06-18T09:25:52.827Z,61.70
2018-06-18T09:27:02.371Z,61.40
2018-06-18T09:28:06.465Z,61.40
2018-06-18T09:29:10.542Z,61.00
2018-06-18T09:30:14.634Z,61.10
2018-06-18T09:31:18.889Z,61.00
2018-06-18T09:32:23.139Z,60.60
2018-06-18T09:33:27.103Z,60.60
2018-06-18T09:34:31.287Z,60.50
2018-06-18T09:35:35.433Z,60.00
2018-06-18T09:36:39.533Z,60.10
2018-06-18T09:37:43.660Z,60.20
2018-06-18T09:38:47.770Z,60.00
2018-06-18T09:39:51.936Z,60.20
2018-06-18T09:40:56.125Z,60.00
2018-06-18T09:42:00.221Z,59.50
2018-06-18T09:43:04.385Z,59.30
2018-06-18T09:45:12.321Z,58.60
2018-06-18T09:46:16.448Z,58.30
2018-06-18T09:47:20.601Z,57.80
2018-06-18T09:49:39.298Z,58.10
2018-06-18T09:50:49.277Z,57.90
2018-06-18T09:51:59.330Z,57.70
2018-06-18T09:53:09.281Z,58.10
2018-06-18T09:54:19.233Z,57.90
2018-06-18T09:56:26.596Z,57.70
2018-06-18T09:57:36.173Z,57.50
2018-06-18T09:58:45.604Z,58.00
2018-06-18T09:59:55.342Z,57.80
2018-06-18T10:01:13.969Z,58.00
2018-06-18T10:02:18.160Z,58.10
2018-06-18T10:03:23.281Z,58.40
2018-06-18T10:04:28.025Z,58.00
2018-06-18T10:05:32.362Z,57.80
2018-06-18T10:06:37.829Z,58.10
2018-06-18T10:07:41.976Z,58.30
2018-06-18T10:08:46.250Z,58.30
2018-06-18T10:09:50.380Z,58.30
2018-06-18T10:10:55.082Z,58.00
2018-06-18T10:11:59.292Z,57.70
2018-06-18T10:13:03.491Z,57.40
2018-06-18T10:14:09.469Z,56.70
2018-06-18T10:15:14.652Z,56.30
2018-06-18T10:16:18.797Z,56.10
2018-06-18T10:17:22.967Z,55.90
2018-06-18T10:18:27.199Z,55.50
2018-06-18T10:19:31.832Z,55.30
2018-06-18T10:20:36.156Z,55.60
2018-06-18T10:21:40.254Z,55.70
2018-06-18T10:22:44.427Z,55.40
2018-06-18T10:23:49.603Z,56.00
2018-06-18T10:24:53.759Z,55.20
2018-06-18T10:25:57.952Z,55.30
2018-06-18T10:27:02.080Z,55.30
2018-06-18T10:28:06.579Z,55.00
2018-06-18T10:29:11.324Z,54.60
2018-06-18T10:30:15.523Z,54.20
2018-06-18T10:31:20.416Z,53.90
2018-06-18T10:32:30.022Z,53.90
2018-06-18T10:33:39.581Z,54.10
2018-06-18T10:34:48.974Z,54.20
2018-06-18T10:37:07.760Z,52.80
2018-06-18T10:38:17.159Z,52.90
2018-06-18T10:39:26.620Z,52.50
2018-06-18T10:40:36.163Z,52.70
2018-06-18T10:41:45.654Z,52.50
2018-06-18T10:43:59.225Z,52.40
2018-06-18T10:45:03.755Z,52.10
2018-06-18T10:46:07.964Z,52.10
2018-06-18T10:47:12.562Z,52.10
2018-06-18T10:48:17.413Z,51.80
2018-06-18T10:49:21.599Z,52.00
2018-06-18T10:50:25.836Z,52.30
2018-06-18T10:51:30.044Z,52.10
2018-06-18T10:52:34.501Z,52.20
2018-06-18T10:53:38.549Z,52.00
2018-06-18T10:54:42.748Z,51.70
2018-06-18T10:55:47.005Z,51.70
2018-06-18T10:56:51.123Z,51.70
2018-06-18T10:57:55.236Z,51.80
2018-06-18T10:58:59.441Z,51.70
2018-06-18T11:00:05.445Z,51.70
2018-06-18T11:01:12.031Z,51.50
2018-06-18T11:02:16.174Z,51.70
2018-06-18T11:03:20.852Z,51.70
2018-06-18T11:04:28.961Z,51.60
2018-06-18T11:05:38.569Z,51.50
2018-06-18T11:06:42.694Z,51.50
2018-06-18T11:07:46.840Z,51.50
2018-06-18T11:08:51.000Z,51.50
2018-06-18T11:09:55.143Z,51.30
2018-06-18T11:10:59.245Z,51.50
2018-06-18T11:12:03.370Z,51.70
2018-06-18T11:13:07.616Z,51.70
2018-06-18T11:14:11.831Z,52.40
2018-06-18T11:15:16.377Z,51.70
2018-06-18T11:16:20.663Z,51.40
2018-06-18T11:17:30.185Z,50.90
2018-06-18T11:18:39.710Z,51.10
2018-06-18T11:19:49.338Z,51.50
2018-06-18T11:20:58.930Z,51.30
2018-06-18T11:23:14.747Z,51.00
2018-06-18T11:24:24.283Z,51.00
2018-06-18T11:26:41.265Z,50.50
2018-06-18T11:27:45.429Z,50.80
2018-06-18T11:28:49.633Z,50.30
2018-06-18T11:30:57.339Z,49.10
2018-06-18T11:32:01.441Z,48.90
2018-06-18T11:33:05.557Z,48.40
2018-06-18T11:34:09.675Z,48.80
2018-06-18T11:35:13.825Z,49.00
2018-06-18T11:36:17.979Z,48.90
2018-06-18T11:37:22.084Z,49.10
2018-06-18T11:38:26.191Z,49.20
2018-06-18T11:39:30.385Z,49.20
2018-06-18T11:40:34.598Z,48.90
2018-06-18T11:41:38.689Z,49.10
2018-06-18T11:42:42.827Z,49.00
2018-06-18T11:43:47.034Z,48.40
2018-06-18T11:44:51.089Z,48.50
2018-06-18T11:45:55.300Z,48.10
2018-06-18T11:46:59.447Z,47.80
2018-06-18T11:48:16.298Z,47.40
2018-06-18T11:49:20.416Z,47.80
2018-06-18T11:50:24.498Z,48.20
2018-06-18T11:51:28.620Z,48.00
2018-06-18T11:52:32.804Z,47.50
2018-06-18T11:53:36.931Z,47.50
2018-06-18T11:54:41.226Z,47.40
2018-06-18T11:55:45.388Z,47.20
2018-06-18T11:56:49.507Z,47.20
2018-06-18T11:57:53.605Z,47.50
2018-06-18T11:59:03.057Z,47.50
2018-06-18T12:00:12.682Z,47.20
2018-06-18T12:01:22.180Z,47.30
2018-06-18T12:02:31.868Z,47.60
2018-06-18T12:03:41.539Z,47.40
2018-06-18T12:04:51.042Z,47.20
2018-06-18T12:06:00.501Z,47.30
2018-06-18T12:08:07.614Z,47.10
2018-06-18T12:09:17.349Z,47.40
2018-06-18T12:11:25.310Z,47.70
2018-06-18T12:12:29.452Z,47.80
2018-06-18T12:14:37.338Z,47.50
2018-06-18T12:15:41.477Z,47.00
2018-06-18T12:16:45.709Z,46.80
2018-06-18T12:17:49.830Z,46.60
2018-06-18T12:18:54.075Z,46.30
2018-06-18T12:21:02.070Z,46.00
2018-06-18T12:22:06.241Z,45.90
2018-06-18T12:23:10.342Z,46.20
2018-06-18T12:24:14.717Z,46.30
2018-06-18T12:25:18.903Z,46.10
2018-06-18T12:27:29.300Z,45.80
2018-06-18T12:28:33.792Z,45.50
2018-06-18T12:29:37.965Z,45.20
2018-06-18T12:30:42.274Z,45.30
2018-06-18T12:31:47.011Z,45.30
2018-06-18T12:33:55.228Z,45.80
2018-06-18T12:34:59.301Z,46.00
2018-06-18T12:40:19.082Z,45.80
2018-06-18T12:41:23.326Z,45.90
2018-06-18T12:42:28.377Z,45.90
2018-06-18T12:43:36.032Z,45.70
2018-06-18T12:44:46.062Z,45.50
2018-06-18T12:45:58.226Z,45.50
2018-06-18T12:47:07.755Z,45.50
2018-06-18T12:48:17.565Z,45.60
2018-06-18T12:49:28.126Z,45.60
2018-06-18T12:50:37.608Z,45.40
2018-06-18T12:51:47.254Z,44.70
2018-06-18T12:52:56.762Z,44.80
2018-06-18T12:54:06.141Z,44.70
2018-06-18T12:55:15.741Z,44.70
2018-06-18T12:57:22.977Z,44.70
2018-06-18T12:58:27.184Z,44.70
2018-06-18T12:59:31.291Z,45.40
2018-06-18T13:00:35.490Z,45.10
2018-06-18T13:01:57.186Z,44.80
2018-06-18T13:03:05.987Z,44.80
2018-06-18T13:04:10.576Z,44.70
2018-06-18T13:06:21.347Z,44.40
2018-06-18T13:08:30.713Z,44.10
2018-06-18T13:09:34.851Z,44.50
2018-06-18T13:10:38.970Z,44.80
2018-06-18T13:11:43.125Z,44.90
2018-06-18T13:12:47.252Z,45.00
2018-06-18T13:13:51.573Z,45.20
2018-06-18T13:14:55.709Z,45.30
2018-06-18T13:16:00.800Z,45.20
2018-06-18T13:17:05.524Z,45.00
2018-06-18T13:18:09.817Z,45.00
2018-06-18T13:19:14.390Z,44.70
2018-06-18T13:20:18.902Z,44.70
2018-06-18T13:21:23.194Z,44.60
2018-06-18T13:22:27.409Z,44.70
2018-06-18T13:23:32.054Z,44.60
2018-06-18T13:24:36.187Z,44.20
2018-06-18T13:25:41.031Z,44.00
2018-06-18T13:26:45.281Z,43.90
2018-06-18T13:27:54.787Z,43.40
2018-06-18T13:28:59.079Z,43.00
2018-06-18T13:30:03.441Z,42.50
2018-06-18T13:31:08.298Z,42.60
2018-06-18T13:32:12.609Z,42.60
2018-06-18T13:33:16.888Z,42.40
2018-06-18T13:34:21.104Z,42.20
2018-06-18T13:35:26.344Z,42.00
2018-06-18T13:36:30.439Z,41.90
2018-06-18T13:37:40.090Z,41.80
2018-06-18T13:38:52.339Z,41.60
2018-06-18T13:40:01.923Z,41.80
2018-06-18T13:41:11.748Z,42.10
2018-06-18T13:42:22.624Z,41.90
2018-06-18T13:43:32.173Z,41.70
2018-06-18T13:44:41.891Z,41.90
2018-06-18T13:45:48.419Z,41.90
2018-06-18T13:46:58.192Z,41.70
2018-06-18T13:48:07.833Z,41.50
2018-06-18T13:49:11.970Z,41.50
2018-06-18T13:50:16.565Z,41.70
2018-06-18T13:51:20.695Z,41.60
2018-06-18T13:52:26.107Z,41.70
2018-06-18T13:53:30.484Z,41.70
2018-06-18T13:54:34.643Z,41.40
2018-06-18T13:55:39.211Z,41.70
2018-06-18T13:56:44.278Z,41.40
2018-06-18T13:57:49.181Z,41.50
2018-06-18T13:58:54.603Z,41.50
2018-06-18T14:01:02.694Z,41.40
2018-06-18T14:02:06.816Z,41.40
2018-06-18T14:03:11.499Z,41.60
2018-06-18T14:04:15.654Z,41.70
2018-06-18T14:05:20.631Z,41.90
2018-06-18T14:06:24.837Z,41.70
2018-06-18T14:07:28.992Z,42.00
2018-06-18T14:08:33.133Z,42.00
2018-06-18T14:09:37.277Z,42.00
2018-06-18T14:10:41.467Z,42.00
2018-06-18T14:11:45.734Z,41.90
2018-06-18T14:12:49.861Z,42.00
2018-06-18T14:13:54.735Z,42.30
2018-06-18T14:14:58.960Z,42.40
2018-06-18T14:16:03.590Z,42.60
2018-06-18T14:17:08.224Z,42.60
2018-06-18T14:19:21.559Z,42.20
2018-06-18T14:20:26.779Z,41.90
2018-06-18T14:21:30.971Z,41.80
2018-06-18T14:22:35.129Z,41.60
2018-06-18T14:23:39.310Z,41.10
2018-06-18T14:24:43.805Z,41.20
2018-06-18T14:25:47.929Z,41.20
2018-06-18T14:26:52.597Z,41.40
2018-06-18T14:27:56.775Z,41.50
2018-06-18T14:29:00.926Z,41.50
2018-06-18T14:30:10.716Z,41.40
2018-06-18T14:31:20.212Z,41.50
2018-06-18T14:32:29.879Z,41.40
2018-06-18T14:33:39.347Z,41.40
2018-06-18T14:34:48.963Z,41.40
2018-06-18T14:35:58.738Z,41.40
2018-06-18T14:37:08.168Z,41.50
2018-06-18T14:38:17.985Z,41.40
2018-06-18T14:39:28.081Z,41.40
2018-06-18T14:40:33.180Z,41.40
2018-06-18T14:41:37.519Z,41.50
2018-06-18T14:42:42.691Z,41.70
2018-06-18T14:43:46.859Z,41.80
2018-06-18T14:44:50.949Z,41.90
2018-06-18T14:45:55.511Z,41.80
2018-06-18T14:46:59.710Z,41.90
2018-06-18T14:48:04.786Z,41.50
2018-06-18T14:49:09.047Z,41.40
2018-06-18T14:51:17.312Z,41.30
2018-06-18T14:52:21.405Z,40.90
2018-06-18T14:53:25.525Z,41.70